createdAt,value
2019-03-10T03:07:42.269Z,31.5
2019-03-10T03:08:32.549Z,31.6
2019-03-10T03:09:23.479Z,31.6
2019-03-10T03:10:13.179Z,31.6
2019-03-10T03:11:02.718Z,31.6
2019-03-10T03:11:53.885Z,31.5
2019-03-10T03:12:43.527Z,31.5
2019-03-10T03:13:33.135Z,31.6
2019-03-10T03:14:23.748Z,31.6
2019-03-10T03:15:14.062Z,31.5
2019-03-10T03:16:03.623Z,31.5
2019-03-10T03:16:56.817Z,31.5
2019-03-10T03:17:42.672Z,31.5
2019-03-10T03:18:33.208Z,31.5
2019-03-10T03:19:23.114Z,31.5
2019-03-10T03:20:14.489Z,31.5
2019-03-10T03:21:04.358Z,31.5
2019-03-10T03:21:54.557Z,31.5
2019-03-10T03:22:44.141Z,31.5
2019-03-10T03:23:34.395Z,31.5
2019-03-10T03:24:24.455Z,31.5
2019-03-10T03:25:14.267Z,31.5
2019-03-10T03:26:03.396Z,31.5
2019-03-10T03:26:54.963Z,31.5
2019-03-10T03:27:44.209Z,31.4
2019-03-10T03:28:34.913Z,31.4
2019-03-10T03:29:24.557Z,31.4
2019-03-10T03:30:14.801Z,31.4
2019-03-10T03:31:05.184Z,31.4
2019-03-10T03:31:53.936Z,31.4
2019-03-10T03:32:45.121Z,31.4
2019-03-10T03:33:35.111Z,31.4
2019-03-10T03:34:24.682Z,31.4
2019-03-10T03:35:15.728Z,31.4
2019-03-10T03:36:05.151Z,31.4
2019-03-10T03:36:55.076Z,31.4
2019-03-10T03:37:45.226Z,31.4
2019-03-10T03:38:35.908Z,31.4
2019-03-10T03:39:24.820Z,31.4
2019-03-10T03:40:14.758Z,31.4
2019-03-10T03:41:05.406Z,31.4
2019-03-10T03:41:54.936Z,31.4
2019-03-10T03:42:45.866Z,31.4
2019-03-10T03:43:35.873Z,31.4
2019-03-10T03:44:25.361Z,31.4
2019-03-10T03:45:15.736Z,31.4
2019-03-10T03:46:05.313Z,31.4
2019-03-10T03:46:55.902Z,31.4
2019-03-10T03:47:45.586Z,31.4
2019-03-10T03:48:35.425Z,31.4
2019-03-10T03:49:26.299Z,31.4
2019-03-10T03:50:15.219Z,31.4
2019-03-10T03:51:05.445Z,31.4
2019-03-10T03:51:56.550Z,31.4
2019-03-10T03:52:45.426Z,31.4
2019-03-10T03:53:36.028Z,31.4
2019-03-10T03:54:25.943Z,31.4
2019-03-10T03:55:16.188Z,31.4
2019-03-10T03:56:06.213Z,31.3
2019-03-10T03:56:55.488Z,31.4
2019-03-10T03:57:46.297Z,31.3
2019-03-10T03:58:36.717Z,31.3
2019-03-10T03:59:26.070Z,31.3
2019-03-10T04:00:15.779Z,31.3
2019-03-10T04:01:06.904Z,31.3
2019-03-10T04:01:57.495Z,31.3
2019-03-10T04:02:46.784Z,31.3
2019-03-10T04:03:37.580Z,31.3
2019-03-10T04:04:26.859Z,31.3
2019-03-10T04:05:16.987Z,31.3
2019-03-10T04:06:07.315Z,31.3
2019-03-10T04:06:56.322Z,31.3
2019-03-10T04:07:47.460Z,31.3
2019-03-10T04:08:36.372Z,31.3
2019-03-10T04:09:27.261Z,31.3
2019-03-10T04:10:16.717Z,31.3
2019-03-10T04:11:06.555Z,31.3
2019-03-10T04:11:57.129Z,31.3
2019-03-10T04:12:46.089Z,31.3
2019-03-10T04:13:37.229Z,31.3
2019-03-10T04:14:28.407Z,31.3
2019-03-10T04:15:17.886Z,31.3
2019-03-10T04:16:06.988Z,31.3
2019-03-10T04:16:57.791Z,31.3
2019-03-10T04:17:48.087Z,31.3
2019-03-10T04:18:38.464Z,31.3
2019-03-10T04:19:27.870Z,31.3
2019-03-10T04:20:18.196Z,31.3
2019-03-10T04:21:08.374Z,31.3
2019-03-10T04:21:58.308Z,31.3
2019-03-10T04:22:48.951Z,31.3
2019-03-10T04:23:38.738Z,31.3
2019-03-10T04:24:27.488Z,31.3
2019-03-10T04:25:18.653Z,31.2
2019-03-10T04:26:08.460Z,31.3
2019-03-10T04:26:58.195Z,31.2
2019-03-10T04:27:48.738Z,31.2
2019-03-10T04:28:38.920Z,31.2
2019-03-10T04:29:28.923Z,31.2
2019-03-10T04:30:19.046Z,31.2
2019-03-10T04:31:09.038Z,31.2
2019-03-10T04:31:59.685Z,31.2
2019-03-10T04:32:49.101Z,31.2
2019-03-10T04:33:39.511Z,31.2
2019-03-10T04:34:29.267Z,31.2
2019-03-10T04:35:19.336Z,31.1
2019-03-10T04:36:09.588Z,31.2
2019-03-10T04:36:59.945Z,31.2
2019-03-10T04:37:49.816Z,31.2
2019-03-10T04:38:39.747Z,31.2
2019-03-10T04:39:29.276Z,31.1
2019-03-10T04:40:19.371Z,31.1
2019-03-10T04:41:09.952Z,31.1
2019-03-10T04:41:59.487Z,31.1
2019-03-10T04:42:49.215Z,31.1
2019-03-10T04:43:39.892Z,31.1
2019-03-10T04:44:29.965Z,31.1
2019-03-10T04:45:19.972Z,31.1
2019-03-10T04:46:09.875Z,31.1
2019-03-10T04:47:00.654Z,31.1
2019-03-10T04:47:49.884Z,31.1
2019-03-10T04:48:40.776Z,31.1
2019-03-10T04:49:30.557Z,31.1
2019-03-10T04:50:22.627Z,31.1
2019-03-10T04:51:10.688Z,31.1
2019-03-10T04:51:59.601Z,31.1
2019-03-10T04:52:50.301Z,31.1
2019-03-10T04:53:40.887Z,31.1
2019-03-10T04:54:30.381Z,31.1
2019-03-10T04:55:20.409Z,31.1
2019-03-10T04:56:10.496Z,31.1
2019-03-10T04:57:03.026Z,31.1
2019-03-10T04:57:51.148Z,31.1
2019-03-10T04:58:40.698Z,31.1
2019-03-10T04:59:31.053Z,31.1
2019-03-10T05:00:21.180Z,31.1
2019-03-10T05:01:11.436Z,31.1
2019-03-10T05:02:00.928Z,31.1
2019-03-10T05:02:51.549Z,31.1
2019-03-10T05:03:41.093Z,31.1
2019-03-10T05:04:34.151Z,31.1
2019-03-10T05:05:21.130Z,31
2019-03-10T05:06:11.869Z,31.1
2019-03-10T05:07:01.864Z,31.1
2019-03-10T05:07:51.601Z,31
2019-03-10T05:08:41.645Z,31
2019-03-10T05:09:31.440Z,31
2019-03-10T05:10:21.821Z,31
2019-03-10T05:11:11.645Z,31
2019-03-10T05:12:01.912Z,31
2019-03-10T05:12:51.713Z,31
2019-03-10T05:13:42.608Z,31
2019-03-10T05:14:32.625Z,31
2019-03-10T05:15:22.195Z,31
2019-03-10T05:16:12.005Z,31
2019-03-10T05:17:02.299Z,31
2019-03-10T05:17:52.048Z,30.9
2019-03-10T05:18:41.838Z,31
2019-03-10T05:19:31.682Z,31
2019-03-10T05:20:23.061Z,30.9
2019-03-10T05:21:12.414Z,31
2019-03-10T05:22:02.617Z,30.9
2019-03-10T05:22:53.049Z,30.9
2019-03-10T05:23:42.799Z,31
2019-03-10T05:24:32.307Z,30.9
2019-03-10T05:25:23.100Z,30.9
2019-03-10T05:26:12.767Z,30.9
2019-03-10T05:27:02.722Z,30.9
2019-03-10T05:27:52.275Z,30.9
2019-03-10T05:28:43.378Z,30.9
2019-03-10T05:29:33.457Z,30.9
2019-03-10T05:30:23.496Z,30.9
2019-03-10T05:31:13.368Z,30.9
2019-03-10T05:32:03.455Z,30.9
2019-03-10T05:32:53.755Z,30.9
2019-03-10T05:33:43.282Z,30.9
2019-03-10T05:34:33.323Z,30.9
2019-03-10T05:35:23.624Z,30.9
2019-03-10T05:36:13.669Z,30.9
2019-03-10T05:37:03.452Z,30.9
2019-03-10T05:37:53.776Z,30.9
2019-03-10T05:38:44.109Z,30.9
2019-03-10T05:39:33.322Z,30.9
2019-03-10T05:40:23.957Z,30.8
2019-03-10T05:41:12.612Z,30.9
2019-03-10T05:42:04.165Z,30.8
2019-03-10T05:42:53.841Z,30.8
2019-03-10T05:43:44.503Z,30.8
2019-03-10T05:44:34.548Z,30.8
2019-03-10T05:45:24.026Z,30.8
2019-03-10T05:46:14.685Z,30.8
2019-03-10T05:47:04.148Z,30.8
2019-03-10T05:47:54.513Z,30.8
2019-03-10T05:48:45.014Z,30.8
2019-03-10T05:49:33.556Z,30.8
2019-03-10T05:50:24.381Z,30.7
2019-03-10T05:51:14.468Z,30.7
2019-03-10T05:52:04.266Z,30.7
2019-03-10T05:52:54.958Z,30.7
2019-03-10T05:53:43.847Z,30.7
2019-03-10T05:54:34.990Z,30.7
2019-03-10T05:55:25.325Z,30.7
2019-03-10T05:56:14.845Z,30.7
2019-03-10T05:57:05.458Z,30.7
2019-03-10T05:57:55.005Z,30.7
2019-03-10T05:58:45.368Z,30.7
2019-03-10T05:59:34.825Z,30.6
2019-03-10T06:00:24.578Z,30.6
2019-03-10T06:01:15.497Z,30.6
2019-03-10T06:02:06.118Z,30.6
2019-03-10T06:02:54.753Z,30.6
2019-03-10T06:03:45.925Z,30.6
2019-03-10T06:05:42.876Z,30.6
2019-03-10T06:06:32.837Z,30.6
2019-03-10T06:07:22.637Z,30.6
2019-03-10T06:08:12.730Z,30.6
2019-03-10T06:09:02.544Z,30.6
2019-03-10T06:09:53.367Z,30.6
2019-03-10T06:10:42.862Z,30.6
2019-03-10T06:11:33.759Z,30.6
2019-03-10T06:12:23.848Z,30.6
2019-03-10T06:13:12.778Z,30.6
2019-03-10T06:14:02.835Z,30.6
2019-03-10T06:14:53.757Z,30.6
2019-03-10T06:15:43.497Z,30.6
2019-03-10T06:16:33.819Z,30.6
2019-03-10T06:17:25.424Z,30.6
2019-03-10T06:18:19.442Z,30.6
2019-03-10T06:19:04.298Z,30.5
2019-03-10T06:19:54.116Z,30.6
2019-03-10T06:20:44.146Z,30.6
2019-03-10T06:21:33.961Z,30.5
2019-03-10T06:22:23.422Z,30.5
2019-03-10T06:23:13.316Z,30.5
2019-03-10T06:24:04.108Z,30.5
2019-03-10T06:24:54.174Z,30.5
2019-03-10T06:25:43.747Z,30.5
2019-03-10T06:26:34.848Z,30.5
2019-03-10T06:27:24.521Z,30.5
2019-03-10T06:28:13.864Z,30.5
2019-03-10T06:29:04.500Z,30.5
2019-03-10T06:29:54.524Z,23.8
2019-03-10T06:30:44.661Z,23.6
2019-03-10T06:31:34.456Z,31.9
2019-03-10T06:32:24.993Z,35.8
2019-03-10T06:33:13.995Z,35.6
2019-03-10T06:34:04.623Z,32.2
2019-03-10T06:34:54.615Z,29.9
2019-03-10T06:35:44.948Z,28.9
2019-03-10T06:36:34.452Z,28.3
2019-03-10T06:37:25.388Z,28.1
2019-03-10T06:38:14.608Z,28
2019-03-10T06:39:05.283Z,28.1
2019-03-10T06:39:54.689Z,28.1
2019-03-10T06:40:45.370Z,28.1
2019-03-10T06:41:34.624Z,28.2
2019-03-10T06:42:25.225Z,27.1
2019-03-10T06:43:15.263Z,28.8
2019-03-10T06:44:06.108Z,35
2019-03-10T06:44:55.939Z,38.4
2019-03-10T06:45:45.391Z,39.3
2019-03-10T06:46:35.450Z,38.6
2019-03-10T06:47:25.242Z,37.5
2019-03-10T06:48:14.995Z,36.6
2019-03-10T06:49:06.175Z,36.1
2019-03-10T06:49:56.275Z,36.1
2019-03-10T06:50:46.057Z,36.6
2019-03-10T06:51:35.800Z,37.4
2019-03-10T06:52:26.465Z,38
2019-03-10T06:53:16.550Z,38.4
2019-03-10T06:54:06.547Z,38.7
2019-03-10T06:54:56.440Z,38.8
2019-03-10T06:55:46.128Z,38.8
2019-03-10T06:56:36.720Z,38.9
2019-03-10T06:57:26.567Z,39.1
2019-03-10T06:58:16.069Z,39.4
2019-03-10T06:59:06.921Z,39.8
2019-03-10T06:59:56.522Z,40.1
2019-03-10T07:00:46.527Z,40.4
2019-03-10T07:01:36.822Z,40.5
2019-03-10T07:02:27.134Z,40.7
2019-03-10T07:03:16.961Z,40.9
2019-03-10T07:05:57.454Z,41.5
2019-03-10T07:06:32.577Z,41.9
2019-03-10T07:07:22.541Z,42
2019-03-10T07:08:12.401Z,42.2
2019-03-10T07:09:02.981Z,42.4
2019-03-10T07:09:53.644Z,42.6
2019-03-10T07:10:43.377Z,42.6
2019-03-10T07:11:33.221Z,42.6
2019-03-10T07:12:23.222Z,42.4
2019-03-10T07:13:13.846Z,41.9
2019-03-10T07:14:03.363Z,41.1
2019-03-10T07:14:53.970Z,40.4
2019-03-10T07:15:42.643Z,39.9
2019-03-10T07:16:33.273Z,39.6
2019-03-10T07:17:23.063Z,39.6
2019-03-10T07:18:12.824Z,39.8
2019-03-10T07:19:03.204Z,39.9
2019-03-10T07:19:53.198Z,40.1
2019-03-10T07:20:43.293Z,40.3
2019-03-10T07:21:32.459Z,40.3
2019-03-10T07:22:24.248Z,40.3
2019-03-10T07:23:14.110Z,40.3
2019-03-10T07:24:04.162Z,40.3
2019-03-10T07:24:53.849Z,40.5
2019-03-10T07:25:43.085Z,40.8
2019-03-10T07:26:33.440Z,41
2019-03-10T07:27:24.288Z,41.2
2019-03-10T07:28:13.538Z,41.3
2019-03-10T07:29:03.890Z,41.3
2019-03-10T07:29:53.912Z,41.4
2019-03-10T07:30:43.988Z,41.4
2019-03-10T07:31:34.040Z,41.6
2019-03-10T07:32:24.222Z,42
2019-03-10T07:33:14.525Z,42.4
2019-03-10T07:34:04.218Z,42.9
2019-03-10T07:34:55.113Z,43.3
2019-03-10T07:35:45.185Z,43.4
2019-03-10T07:36:34.667Z,43.4
2019-03-10T07:37:25.020Z,43.4
2019-03-10T07:38:15.105Z,43.4
2019-03-10T07:39:05.122Z,43.6
2019-03-10T07:39:54.950Z,43.7
2019-03-10T07:40:44.449Z,43.8
2019-03-10T07:41:35.632Z,43.9
2019-03-10T07:42:25.934Z,44.1
2019-03-10T07:43:15.185Z,44.3
2019-03-10T07:44:05.254Z,44.6
2019-03-10T07:44:55.827Z,45.1
2019-03-10T07:45:45.084Z,45.6
2019-03-10T07:46:35.992Z,46
2019-03-10T07:47:25.741Z,46.3
2019-03-10T07:48:15.259Z,46.6
2019-03-10T07:49:05.886Z,46.7
2019-03-10T07:49:55.399Z,46.8
2019-03-10T07:50:45.439Z,46.9
2019-03-10T07:51:36.326Z,47.2
2019-03-10T07:52:26.286Z,47.6
2019-03-10T07:53:16.426Z,47.9
2019-03-10T07:54:06.258Z,48.2
2019-03-10T07:54:56.029Z,48.3
2019-03-10T07:55:46.101Z,48.4
2019-03-10T07:56:36.141Z,48.7
2019-03-10T07:57:25.436Z,49
2019-03-10T07:58:15.689Z,49.3
2019-03-10T07:59:05.804Z,49.6
2019-03-10T07:59:56.377Z,49.7
2019-03-10T08:00:46.749Z,49.7
2019-03-10T08:01:37.071Z,49.7
2019-03-10T08:02:26.878Z,49.8
2019-03-10T08:03:16.941Z,49.8
2019-03-10T08:04:07.038Z,49.8
2019-03-10T08:04:56.833Z,49.9
2019-03-10T08:05:46.849Z,50
2019-03-10T08:06:36.606Z,50.3
2019-03-10T08:07:27.273Z,50.8
2019-03-10T08:08:16.555Z,51.4
2019-03-10T08:09:07.610Z,52.1
2019-03-10T08:09:57.665Z,52.4
2019-03-10T08:10:46.606Z,52.6
2019-03-10T08:12:27.250Z,52.3
2019-03-10T08:13:16.812Z,52.3
2019-03-10T08:14:06.896Z,52.5
2019-03-10T08:14:57.736Z,52.7
2019-03-10T08:15:47.787Z,52.9
2019-03-10T08:16:37.577Z,53.3
2019-03-10T08:17:30.353Z,53.5
2019-03-10T08:18:17.692Z,53.8
2019-03-10T08:19:07.512Z,53.9
2019-03-10T08:19:58.150Z,54.1
2019-03-10T08:20:48.431Z,54.3
2019-03-10T08:21:38.239Z,54.5
2019-03-10T08:22:27.732Z,54.9
2019-03-10T08:23:18.369Z,55.2
2019-03-10T08:24:08.949Z,55.3
2019-03-10T08:24:58.177Z,54.9
2019-03-10T08:25:48.014Z,54.4
2019-03-10T08:26:39.102Z,53.6
2019-03-10T08:27:28.662Z,53.4
2019-03-10T08:28:21.230Z,53.6
2019-03-10T08:29:09.030Z,53.8
2019-03-10T08:29:58.540Z,53.9
2019-03-10T08:30:48.924Z,53.9
2019-03-10T08:31:38.713Z,53.6
2019-03-10T08:32:28.199Z,53.7
2019-03-10T08:33:18.529Z,54.1
2019-03-10T08:34:08.930Z,54.7
2019-03-10T08:34:59.453Z,55.1
2019-03-10T08:35:49.299Z,55.6
2019-03-10T08:36:39.096Z,56
2019-03-10T08:37:29.911Z,55.9
2019-03-10T08:38:19.726Z,55.3
2019-03-10T08:39:08.951Z,54.8
2019-03-10T08:39:59.301Z,54.8
2019-03-10T08:40:49.885Z,54.9
2019-03-10T08:41:39.966Z,55.1
2019-03-10T08:42:29.776Z,55.5
2019-03-10T08:43:20.164Z,55.8
2019-03-10T08:44:09.833Z,56.1
2019-03-10T08:44:59.098Z,56.3
2019-03-10T08:45:50.593Z,56.3
2019-03-10T08:46:40.011Z,56.4
2019-03-10T08:47:29.014Z,56.7
2019-03-10T08:48:20.133Z,57.2
2019-03-10T08:49:10.016Z,57.6
2019-03-10T08:50:00.001Z,57.4
2019-03-10T08:50:50.613Z,56.1
2019-03-10T08:51:40.405Z,54.6
2019-03-10T08:52:30.720Z,53.9
2019-03-10T08:53:19.995Z,54.1
2019-03-10T08:54:10.666Z,54.8
2019-03-10T08:55:00.714Z,55.9
2019-03-10T08:55:50.295Z,56.9
2019-03-10T08:56:40.813Z,57.7
2019-03-10T08:57:31.435Z,58
2019-03-10T08:58:21.197Z,57.9
2019-03-10T08:59:11.258Z,57.9
2019-03-10T09:00:00.427Z,58
2019-03-10T09:00:51.104Z,58.1
2019-03-10T09:01:40.937Z,58.3
2019-03-10T09:02:31.157Z,58.6
2019-03-10T09:03:21.045Z,58.8
2019-03-10T09:04:11.294Z,58.9
2019-03-10T09:05:01.541Z,59.1
2019-03-10T09:05:51.409Z,59.4
2019-03-10T09:06:41.727Z,59.7
2019-03-10T09:07:31.042Z,60
2019-03-10T09:08:21.585Z,60.2
2019-03-10T09:09:11.942Z,60.4
2019-03-10T09:10:02.324Z,60.6
2019-03-10T09:10:51.139Z,60.7
2019-03-10T09:11:41.636Z,60.8
2019-03-10T09:12:31.626Z,60.8
2019-03-10T09:13:21.959Z,60.9
2019-03-10T09:14:12.031Z,60.9
2019-03-10T09:15:02.515Z,61
2019-03-10T09:15:51.352Z,61.1
2019-03-10T09:16:42.859Z,61.2
2019-03-10T09:17:32.590Z,61.3
2019-03-10T09:18:22.064Z,61.4
2019-03-10T09:19:11.851Z,61.4
2019-03-10T09:20:02.377Z,61.5
2019-03-10T09:20:52.561Z,61.6
2019-03-10T09:21:42.644Z,61.7
2019-03-10T09:22:32.381Z,61.7
2019-03-10T09:23:22.968Z,61.8
2019-03-10T09:24:12.776Z,61.9
2019-03-10T09:25:02.852Z,62.1
2019-03-10T09:25:53.216Z,62.2
2019-03-10T09:26:42.109Z,62.3
2019-03-10T09:27:34.436Z,62.4
2019-03-10T09:28:23.068Z,62.6
2019-03-10T09:29:12.925Z,62.7
2019-03-10T09:30:03.341Z,62.8
2019-03-10T09:30:52.694Z,62.8
2019-03-10T09:31:43.589Z,62.8
2019-03-10T09:32:33.708Z,62.9
2019-03-10T09:33:23.772Z,63
2019-03-10T09:34:12.745Z,63.1
2019-03-10T09:35:04.121Z,63.1
2019-03-10T09:35:53.586Z,63.3
2019-03-10T09:36:43.111Z,63.3
2019-03-10T09:37:33.515Z,63.4
2019-03-10T09:38:24.335Z,63.4
2019-03-10T09:39:13.570Z,63.4
2019-03-10T09:40:04.218Z,63.5
2019-03-10T09:40:54.315Z,63.6
2019-03-10T09:41:44.072Z,63.6
2019-03-10T09:42:33.418Z,63.8
2019-03-10T09:43:24.730Z,63.8
2019-03-10T09:44:13.965Z,63.9
2019-03-10T09:45:04.816Z,64
2019-03-10T09:45:54.355Z,64.2
2019-03-10T09:46:43.415Z,64.3
2019-03-10T09:47:34.192Z,64.5
2019-03-10T09:48:24.522Z,64.7
2019-03-10T09:49:14.547Z,64.9
2019-03-10T09:50:04.316Z,65.1
2019-03-10T09:50:54.422Z,65.2
2019-03-10T09:51:44.467Z,65.3
2019-03-10T09:52:34.512Z,65.4
2019-03-10T09:53:25.162Z,65.2
2019-03-10T09:54:14.932Z,64.4
2019-03-10T09:55:07.512Z,63.4
2019-03-10T09:55:55.332Z,62.6
2019-03-10T09:56:44.262Z,62.3
2019-03-10T09:57:34.904Z,62.3
2019-03-10T09:58:25.239Z,62.6
2019-03-10T09:59:15.554Z,63.3
2019-03-10T10:00:05.569Z,63.9
2019-03-10T10:00:55.478Z,64.4
2019-03-10T10:01:45.260Z,64.7
2019-03-10T10:02:35.544Z,64.9
2019-03-10T10:03:26.126Z,65
2019-03-10T10:04:15.761Z,65.2
2019-03-10T10:06:42.384Z,65.6
2019-03-10T10:07:31.645Z,65.8
2019-03-10T10:08:22.579Z,65.9
2019-03-10T10:09:12.536Z,65.8
2019-03-10T10:10:02.711Z,65.9
2019-03-10T10:10:53.175Z,65.9
2019-03-10T10:11:43.028Z,66.1
2019-03-10T10:12:32.767Z,66.2
2019-03-10T10:13:23.107Z,66.3
2019-03-10T10:14:13.728Z,66.4
2019-03-10T10:15:03.268Z,66.4
2019-03-10T10:15:53.816Z,66.6
2019-03-10T10:16:42.780Z,66.7
2019-03-10T10:17:32.832Z,66.8
2019-03-10T10:18:23.143Z,66.9
2019-03-10T10:19:13.570Z,67.1
2019-03-10T10:20:03.389Z,67.2
2019-03-10T10:20:54.173Z,67.3
2019-03-10T10:21:42.853Z,67.4
2019-03-10T10:22:33.485Z,67.5
2019-03-10T10:23:23.530Z,67.6
2019-03-10T10:24:13.655Z,67.6
2019-03-10T10:25:03.991Z,67.7
2019-03-10T10:25:53.243Z,67.8
2019-03-10T10:26:43.593Z,67.8
2019-03-10T10:27:33.938Z,67.9
2019-03-10T10:28:23.183Z,67.9
2019-03-10T10:29:14.053Z,67.9
2019-03-10T10:30:04.115Z,67.9
2019-03-10T10:30:53.607Z,67.9
2019-03-10T10:31:43.420Z,68
2019-03-10T10:32:34.259Z,68.1
2019-03-10T10:33:24.142Z,68.3
2019-03-10T10:34:14.877Z,68.3
2019-03-10T10:35:04.895Z,68.4
2019-03-10T10:35:54.442Z,68.4
2019-03-10T10:36:44.249Z,68.5
2019-03-10T10:37:37.360Z,68.6
2019-03-10T10:38:24.773Z,68.6
2019-03-10T10:39:15.024Z,68.6
2019-03-10T10:40:05.561Z,68.6
2019-03-10T10:40:55.095Z,68.6
2019-03-10T10:41:45.389Z,68.7
2019-03-10T10:42:35.479Z,68.7
2019-03-10T10:43:24.779Z,68.8
2019-03-10T10:44:15.325Z,68.8
2019-03-10T10:45:05.236Z,68.9
2019-03-10T10:45:58.013Z,68.9
2019-03-10T10:46:45.781Z,68.9
2019-03-10T10:47:34.751Z,68.9
2019-03-10T10:48:25.338Z,68.9
2019-03-10T10:49:15.487Z,69
2019-03-10T10:50:06.199Z,69.1
2019-03-10T10:50:55.686Z,69.2
2019-03-10T10:51:46.289Z,69.2
2019-03-10T10:52:36.115Z,69.3
2019-03-10T10:53:27.504Z,69.3
2019-03-10T10:54:16.191Z,69.3
2019-03-10T10:55:06.195Z,69.3
2019-03-10T10:55:55.740Z,69.4
2019-03-10T10:56:46.730Z,69.4
2019-03-10T10:57:36.254Z,69.5
2019-03-10T10:58:26.359Z,69.5
2019-03-10T10:59:16.704Z,69.4
2019-03-10T11:00:06.234Z,69.3
2019-03-10T11:00:57.088Z,69.3
2019-03-10T11:01:46.059Z,69.3
2019-03-10T11:02:36.648Z,69.4
2019-03-10T11:03:26.493Z,69.5
2019-03-10T11:04:16.783Z,69.7
2019-03-10T11:05:06.678Z,69.8
2019-03-10T11:05:56.898Z,69.7
2019-03-10T11:06:47.014Z,69.4
2019-03-10T11:07:37.045Z,69.2
2019-03-10T11:08:27.158Z,69.1
2019-03-10T11:09:16.903Z,69.1
2019-03-10T11:10:07.573Z,69.1
2019-03-10T11:10:57.020Z,69.2
2019-03-10T11:11:47.701Z,69.3
2019-03-10T11:12:37.663Z,69.6
2019-03-10T11:13:27.250Z,69.8
2019-03-10T11:14:16.664Z,69.8
2019-03-10T11:15:08.141Z,69.8
2019-03-10T11:15:58.806Z,69.8
2019-03-10T11:16:50.060Z,69.8
2019-03-10T11:17:37.400Z,69.8
2019-03-10T11:18:27.250Z,69.8
2019-03-10T11:19:17.878Z,69.9
2019-03-10T11:20:07.957Z,70.1
2019-03-10T11:21:00.607Z,70.1
2019-03-10T11:21:47.792Z,70.2
2019-03-10T11:22:38.042Z,70.2
2019-03-10T11:23:27.907Z,70.2
2019-03-10T11:24:18.737Z,70.2
2019-03-10T11:25:07.755Z,70.1
2019-03-10T11:25:57.577Z,70.1
2019-03-10T11:26:48.134Z,70.1
2019-03-10T11:27:37.722Z,70.2
2019-03-10T11:28:28.322Z,70.2
2019-03-10T11:29:18.399Z,70.3
2019-03-10T11:30:06.909Z,70.3
2019-03-10T11:30:57.437Z,70.3
2019-03-10T11:31:48.052Z,70.3
2019-03-10T11:32:38.694Z,70.4
2019-03-10T11:33:31.356Z,70.4
2019-03-10T11:34:17.932Z,70.6
2019-03-10T11:35:08.234Z,70.6
2019-03-10T11:35:59.050Z,70.7
2019-03-10T11:36:47.859Z,70.7
2019-03-10T11:37:39.034Z,70.7
2019-03-10T11:38:29.261Z,70.6
2019-03-10T11:39:19.156Z,70.6
2019-03-10T11:40:09.046Z,70.7
2019-03-10T11:40:59.158Z,70.7
2019-03-10T11:41:52.173Z,70.8
2019-03-10T11:42:40.133Z,70.8
2019-03-10T11:43:29.451Z,70.9
2019-03-10T11:44:19.444Z,71
2019-03-10T11:45:09.728Z,71.1
2019-03-10T11:45:59.085Z,71.1
2019-03-10T11:46:49.911Z,71.1
2019-03-10T11:47:39.721Z,71.1
2019-03-10T11:48:30.323Z,71
2019-03-10T11:49:20.096Z,70.9
2019-03-10T11:50:10.522Z,70.5
2019-03-10T11:51:00.769Z,69.8
2019-03-10T11:51:50.371Z,69
2019-03-10T11:52:39.815Z,68.5
2019-03-10T11:53:31.417Z,68.2
2019-03-10T11:54:20.205Z,67.9
2019-03-10T11:55:11.647Z,67.8
2019-03-10T11:56:00.859Z,67.6
2019-03-10T11:56:50.953Z,67.6
2019-03-10T11:57:40.435Z,67.7
2019-03-10T11:58:33.450Z,67.8
2019-03-10T11:59:19.793Z,67.8
2019-03-10T12:00:10.402Z,67.8
2019-03-10T12:01:01.000Z,67.3
2019-03-10T12:01:51.032Z,66.4
2019-03-10T12:02:41.361Z,65.2
2019-03-10T12:03:30.332Z,64.3
2019-03-10T12:04:20.945Z,63.9
2019-03-10T12:06:42.274Z,66.1
2019-03-10T12:07:32.052Z,67.3
2019-03-10T12:08:22.704Z,67.8
2019-03-10T12:09:12.744Z,67.9
2019-03-10T12:10:03.382Z,67.9
2019-03-10T12:10:52.853Z,67.9
2019-03-10T12:11:42.709Z,67.9
2019-03-10T12:12:32.682Z,68
2019-03-10T12:13:23.329Z,68.1
2019-03-10T12:14:13.081Z,68.3
2019-03-10T12:15:03.424Z,68.4
2019-03-10T12:15:53.244Z,68.7
2019-03-10T12:16:43.339Z,68.8
2019-03-10T12:17:33.601Z,68.9
2019-03-10T12:18:23.171Z,69
2019-03-10T12:19:13.191Z,69.1
2019-03-10T12:20:03.115Z,69.1
2019-03-10T12:20:53.033Z,69.1
2019-03-10T12:21:43.361Z,69.1
2019-03-10T12:22:34.054Z,69.1
2019-03-10T12:23:24.099Z,69.1
2019-03-10T12:24:13.401Z,69.1
2019-03-10T12:25:03.962Z,69.1
2019-03-10T12:25:53.942Z,69.1
2019-03-10T12:26:44.301Z,69
2019-03-10T12:27:33.851Z,69
2019-03-10T12:28:23.822Z,69
2019-03-10T12:29:13.953Z,69
2019-03-10T12:30:04.445Z,69
2019-03-10T12:30:53.991Z,69.1
2019-03-10T12:31:44.656Z,69.1
2019-03-10T12:32:34.135Z,69.1
2019-03-10T12:33:24.063Z,69.2
2019-03-10T12:34:14.573Z,69.2
2019-03-10T12:35:04.133Z,69.3
2019-03-10T12:35:54.110Z,69.3
2019-03-10T12:36:46.092Z,69.3
2019-03-10T12:37:35.339Z,69.4
2019-03-10T12:38:25.416Z,69.4
2019-03-10T12:39:14.315Z,69.3
2019-03-10T12:40:05.086Z,69.4
2019-03-10T12:40:54.720Z,69.3
2019-03-10T12:41:45.327Z,69.3
2019-03-10T12:42:35.110Z,69.3
2019-03-10T12:43:24.475Z,69.2
2019-03-10T12:44:14.755Z,69.1
2019-03-10T12:45:05.358Z,69.1
2019-03-10T12:45:55.416Z,69
2019-03-10T12:46:45.175Z,68.9
2019-03-10T12:47:34.792Z,68.7
2019-03-10T12:48:25.814Z,68.6
2019-03-10T12:49:16.224Z,68.6
2019-03-10T12:50:05.310Z,68.7
2019-03-10T12:50:55.522Z,68.8
2019-03-10T12:51:45.510Z,68.8
2019-03-10T12:52:36.127Z,68.7
2019-03-10T12:53:25.914Z,68.6
2019-03-10T12:54:15.976Z,68.5
2019-03-10T12:55:06.400Z,68.4
2019-03-10T12:55:55.567Z,68.3
2019-03-10T12:56:47.152Z,68.3
2019-03-10T12:57:36.544Z,68.3
2019-03-10T12:58:26.557Z,68.3
2019-03-10T12:59:15.004Z,68.3
2019-03-10T13:00:05.634Z,68.3
2019-03-10T13:01:09.116Z,68.3
2019-03-10T13:01:47.094Z,68.2
2019-03-10T13:02:36.601Z,68.2
2019-03-10T13:03:27.100Z,68.1
2019-03-10T13:04:19.744Z,68.1
2019-03-10T13:05:05.999Z,68
2019-03-10T13:05:56.859Z,67.9
2019-03-10T13:06:46.598Z,67.9
2019-03-10T13:07:36.963Z,67.9
2019-03-10T13:08:26.456Z,67.9
2019-03-10T13:09:17.061Z,67.8
2019-03-10T13:10:06.611Z,67.9
2019-03-10T13:10:57.537Z,67.8
2019-03-10T13:11:47.284Z,67.8
2019-03-10T13:12:37.354Z,67.7
2019-03-10T13:13:26.589Z,67.6
2019-03-10T13:14:17.455Z,67.5
2019-03-10T13:15:06.650Z,67.5
2019-03-10T13:15:57.058Z,67.4
2019-03-10T13:16:46.559Z,67.4
2019-03-10T13:17:37.149Z,67.4
2019-03-10T13:18:27.281Z,67.4
2019-03-10T13:19:17.954Z,67.3
2019-03-10T13:20:07.921Z,67.3
2019-03-10T13:20:58.008Z,67.1
2019-03-10T13:21:49.111Z,67.1
2019-03-10T13:22:38.168Z,67
2019-03-10T13:23:28.083Z,67
2019-03-10T13:24:17.895Z,67.1
2019-03-10T13:25:07.485Z,67.1
2019-03-10T13:25:57.334Z,67.1
2019-03-10T13:26:48.167Z,67
2019-03-10T13:27:37.178Z,66.9
2019-03-10T13:28:28.072Z,66.8
2019-03-10T13:29:18.080Z,66.8
2019-03-10T13:30:08.415Z,66.8
2019-03-10T13:30:58.006Z,66.7
2019-03-10T13:31:48.781Z,66.6
2019-03-10T13:32:37.749Z,66.4
2019-03-10T13:33:28.415Z,66.1
2019-03-10T13:34:18.753Z,65.9
2019-03-10T13:35:08.240Z,65.8
2019-03-10T13:36:01.961Z,65.6
2019-03-10T13:36:48.284Z,65.6
2019-03-10T13:37:38.595Z,65.6
2019-03-10T13:38:29.212Z,65.6
2019-03-10T13:39:19.026Z,65.6
2019-03-10T13:40:09.120Z,65.5
2019-03-10T13:41:02.243Z,65.4
2019-03-10T13:41:49.720Z,65.3
2019-03-10T13:42:38.387Z,65.1
2019-03-10T13:43:29.307Z,65
2019-03-10T13:44:19.912Z,64.8
2019-03-10T13:45:10.067Z,64.6
2019-03-10T13:45:59.468Z,64.3
2019-03-10T13:46:50.148Z,63.9
2019-03-10T13:47:39.889Z,63.5
2019-03-10T13:48:29.944Z,63.2
2019-03-10T13:49:19.505Z,62.9
2019-03-10T13:50:10.097Z,62.8
2019-03-10T13:51:00.697Z,62.8
2019-03-10T13:51:49.326Z,62.7
2019-03-10T13:52:39.721Z,62.6
2019-03-10T13:53:29.993Z,62.6
2019-03-10T13:54:20.646Z,62.5
2019-03-10T13:55:10.129Z,62.4
2019-03-10T13:56:00.231Z,62.4
2019-03-10T13:56:50.546Z,62.4
2019-03-10T13:57:41.179Z,62.3
2019-03-10T13:58:30.656Z,62.3
2019-03-10T13:59:20.458Z,62.2
2019-03-10T14:00:10.516Z,62
2019-03-10T14:01:00.290Z,61.9
2019-03-10T14:01:49.558Z,61.8
2019-03-10T14:02:40.660Z,61.6
2019-03-10T14:03:30.171Z,61.5
2019-03-10T14:04:21.096Z,61.4
2019-03-10T14:05:10.892Z,61.2
2019-03-10T14:07:43.020Z,60.8
2019-03-10T14:08:32.767Z,60.9
2019-03-10T14:09:21.955Z,60.9
2019-03-10T14:10:15.413Z,60.9
2019-03-10T14:11:02.801Z,60.9
2019-03-10T14:11:52.420Z,60.8
2019-03-10T14:12:42.378Z,60.6
2019-03-10T14:13:33.155Z,60.5
2019-03-10T14:14:22.915Z,60.4
2019-03-10T14:15:11.922Z,60.4
2019-03-10T14:16:02.560Z,60.3
2019-03-10T14:16:52.566Z,60.2
2019-03-10T14:17:42.379Z,60.1
2019-03-10T14:18:33.497Z,60
2019-03-10T14:19:23.545Z,59.9
2019-03-10T14:20:13.900Z,59.7
2019-03-10T14:21:02.977Z,59.6
2019-03-10T14:21:53.201Z,59.4
2019-03-10T14:22:42.931Z,59.3
2019-03-10T14:23:33.300Z,59.2
2019-03-10T14:24:23.650Z,59.1
2019-03-10T14:25:13.717Z,58.9